Time;durP1;ratioP1;P1;durP2;ratioP2;P2;SDS_P1;SDS_P2;PMS_P1;PMS_P2;Temp;Humidity;BMP_temperature;BMP_pressure;BME280_temperature;BME280_humidity;BME280_pressure;Samples;Min_cycle;Max_cycle;Signal;HPM_P1;HPM_P2
2024/03/16 00:01:20;;;;;;;0.70;0.30;;;8.70;99.90;;;;;;5123367;28;20436;-82
2024/03/16 00:03:47;;;;;;;0.30;0.30;;;8.80;99.90;;;;;;5124228;27;20437;-82
2024/03/16 00:06:14;;;;;;;0.40;0.30;;;8.90;99.90;;;;;;5123072;27;20434;-82
2024/03/16 00:08:41;;;;;;;0.37;0.30;;;8.90;99.90;;;;;;5123464;28;20443;-82
2024/03/16 00:11:08;;;;;;;0.40;0.40;;;8.80;99.90;;;;;;5122691;28;20469;-82
2024/03/16 00:13:36;;;;;;;0.40;0.30;;;8.80;99.90;;;;;;5121968;28;20963;-82
2024/03/16 00:16:03;;;;;;;0.30;0.30;;;8.70;99.90;;;;;;5122362;28;20438;-82
2024/03/16 00:18:30;;;;;;;1.30;0.30;;;8.70;99.90;;;;;;5121798;28;20453;-82
2024/03/16 00:20:58;;;;;;;0.30;0.27;;;8.60;99.90;;;;;;5121904;28;20445;-82
2024/03/16 00:23:24;;;;;;;0.40;0.30;;;8.50;99.90;;;;;;5120860;28;21014;-82
2024/03/16 00:25:52;;;;;;;0.30;0.30;;;8.40;99.90;;;;;;5121305;28;20446;-81
2024/03/16 00:28:18;;;;;;;0.30;0.20;;;8.30;99.90;;;;;;5120544;28;20499;-81
2024/03/16 00:30:45;;;;;;;0.40;0.30;;;8.30;99.90;;;;;;5120275;28;20478;-81
2024/03/16 00:33:12;;;;;;;0.50;0.43;;;8.20;99.90;;;;;;5119959;28;20430;-81
2024/03/16 00:35:40;;;;;;;0.63;0.50;;;8.20;99.90;;;;;;5119800;28;20797;-83
2024/03/16 00:38:07;;;;;;;0.30;0.30;;;8.10;99.90;;;;;;5119219;28;20458;-81
2024/03/16 00:40:33;;;;;;;0.40;0.30;;;8.10;99.90;;;;;;5119107;28;20430;-82
2024/03/16 00:43:00;;;;;;;0.30;0.20;;;8.00;99.90;;;;;;5119878;28;20430;-82
2024/03/16 00:45:26;;;;;;;0.30;0.23;;;7.90;99.90;;;;;;5119620;28;20446;-82
2024/03/16 00:47:55;;;;;;;0.30;0.20;;;7.90;99.90;;;;;;5118468;28;20452;-82
2024/03/16 00:50:22;;;;;;;0.40;0.30;;;7.90;99.90;;;;;;5119362;28;20946;-82
2024/03/16 00:52:49;;;;;;;0.40;0.30;;;7.80;99.90;;;;;;5118720;28;20426;-82
2024/03/16 00:55:16;;;;;;;0.30;0.30;;;7.90;99.90;;;;;;5118061;28;20441;-81
2024/03/16 00:57:43;;;;;;;0.30;0.27;;;7.80;99.90;;;;;;5119192;27;20541;-82
2024/03/16 01:00:11;;;;;;;0.50;0.50;;;7.80;99.90;;;;;;5122352;27;20438;-81
2024/03/16 01:02:39;;;;;;;0.30;0.30;;;7.70;99.90;;;;;;5124450;27;20430;-81
2024/03/16 01:05:06;;;;;;;0.40;0.30;;;7.70;99.90;;;;;;5146399;27;20419;-83
2024/03/16 01:07:33;;;;;;;0.40;0.30;;;7.70;99.90;;;;;;5146435;27;20497;-86
2024/03/16 01:10:00;;;;;;;0.30;0.30;;;7.70;99.90;;;;;;5143093;27;20480;-81
2024/03/16 01:12:27;;;;;;;0.40;0.33;;;7.80;99.90;;;;;;5124702;27;20444;-81
2024/03/16 01:14:54;;;;;;;4.50;0.40;;;7.80;99.90;;;;;;5123396;27;20442;-81
2024/03/16 01:17:21;;;;;;;0.73;0.30;;;7.90;99.90;;;;;;5122792;27;20450;-81
2024/03/16 01:19:48;;;;;;;0.40;0.33;;;7.90;99.90;;;;;;5121880;27;20434;-81
2024/03/16 01:22:15;;;;;;;0.30;0.30;;;7.90;99.90;;;;;;5120970;27;20778;-81
2024/03/16 01:24:42;;;;;;;0.30;0.30;;;7.90;99.90;;;;;;5122322;27;20444;-81
2024/03/16 01:27:09;;;;;;;1.03;0.30;;;7.90;99.90;;;;;;5121983;27;20440;-82
2024/03/16 01:29:36;;;;;;;0.40;0.30;;;7.90;99.90;;;;;;5122101;27;20438;-81
2024/03/16 01:32:05;;;;;;;0.40;0.30;;;7.90;99.90;;;;;;5122067;27;20446;-81
2024/03/16 01:34:32;;;;;;;0.40;0.40;;;7.90;99.90;;;;;;5121735;27;20448;-81
2024/03/16 01:36:59;;;;;;;0.43;0.43;;;8.00;99.90;;;;;;5122358;27;20438;-82
2024/03/16 01:39:26;;;;;;;0.30;0.30;;;7.90;99.90;;;;;;5121073;27;20431;-81
2024/03/16 01:41:52;;;;;;;0.40;0.30;;;7.90;99.90;;;;;;5120699;27;20465;-83
2024/03/16 01:44:19;;;;;;;0.60;0.30;;;7.80;99.90;;;;;;5120523;27;20438;-81
2024/03/16 01:46:47;;;;;;;0.40;0.30;;;7.80;99.90;;;;;;5121589;27;20453;-80
2024/03/16 01:49:14;;;;;;;0.37;0.30;;;7.80;99.90;;;;;;5124137;27;20881;-82
2024/03/16 01:51:41;;;;;;;0.30;0.30;;;7.80;99.90;;;;;;5121701;27;20482;-82
2024/03/16 01:54:10;;;;;;;0.43;0.33;;;7.90;99.90;;;;;;5121721;27;20434;-82
2024/03/16 01:56:37;;;;;;;0.30;0.30;;;7.90;99.90;;;;;;5122059;27;20946;-81
2024/03/16 01:59:04;;;;;;;0.73;0.40;;;8.00;99.90;;;;;;5121286;27;20472;-81
2024/03/16 02:01:31;;;;;;;0.40;0.30;;;8.00;99.90;;;;;;5121406;27;20528;-82
2024/03/16 02:03:58;;;;;;;0.30;0.20;;;8.00;99.90;;;;;;5121609;27;20453;-81
2024/03/16 02:06:26;;;;;;;0.30;0.20;;;8.00;99.90;;;;;;5122109;27;20509;-82
2024/03/16 02:08:53;;;;;;;1.43;0.40;;;8.00;99.90;;;;;;5121601;27;20827;-81
2024/03/16 02:11:20;;;;;;;0.30;0.30;;;8.00;99.90;;;;;;5121863;27;20848;-82
2024/03/16 02:13:48;;;;;;;0.40;0.30;;;8.00;99.90;;;;;;5121698;27;20437;-83
2024/03/16 02:16:15;;;;;;;0.40;0.30;;;7.90;99.90;;;;;;5122020;27;20464;-81
2024/03/16 02:18:42;;;;;;;0.30;0.30;;;8.00;99.90;;;;;;5121451;27;20446;-81
2024/03/16 02:21:09;;;;;;;0.30;0.30;;;8.00;99.90;;;;;;5121235;27;20434;-81
2024/03/16 02:23:36;;;;;;;0.40;0.30;;;8.00;99.90;;;;;;5122035;27;20522;-81
2024/03/16 02:26:04;;;;;;;0.30;0.30;;;8.00;99.90;;;;;;5120788;27;20432;-82
2024/03/16 02:28:31;;;;;;;0.57;0.30;;;8.00;99.90;;;;;;5121665;27;20835;-82
2024/03/16 02:30:58;;;;;;;1.03;0.30;;;8.00;99.90;;;;;;5120298;27;20560;-81
2024/03/16 02:33:27;;;;;;;0.30;0.20;;;8.00;99.90;;;;;;5120439;27;20442;-81
2024/03/16 02:35:54;;;;;;;0.33;0.33;;;8.00;99.90;;;;;;5121596;27;20526;-80
2024/03/16 02:38:21;;;;;;;0.40;0.30;;;7.90;99.90;;;;;;5119681;27;20508;-82
2024/03/16 02:40:48;;;;;;;0.30;0.30;;;7.90;99.90;;;;;;5119377;27;20931;-81
2024/03/16 02:43:15;;;;;;;0.40;0.30;;;8.00;99.90;;;;;;5119673;27;20438;-81
2024/03/16 02:45:42;;;;;;;0.33;0.30;;;8.00;99.90;;;;;;5120214;27;20456;-81
2024/03/16 02:48:11;;;;;;;1.20;0.70;;;7.90;99.90;;;;;;5119747;27;20458;-82
2024/03/16 02:50:38;;;;;;;0.60;0.30;;;7.90;99.90;;;;;;5120035;27;20952;-80
2024/03/16 02:53:04;;;;;;;0.30;0.30;;;7.90;99.90;;;;;;5119480;27;20437;-81
2024/03/16 02:55:31;;;;;;;0.30;0.30;;;7.80;99.90;;;;;;5119639;27;20435;-81
2024/03/16 02:57:58;;;;;;;0.40;0.30;;;7.90;99.90;;;;;;5119202;27;20970;-81
2024/03/16 03:00:26;;;;;;;1.83;0.30;;;7.90;99.90;;;;;;5118768;27;20445;-81
2024/03/16 03:02:53;;;;;;;0.30;0.30;;;7.90;99.90;;;;;;5119202;27;20442;-81
2024/03/16 03:05:22;;;;;;;0.30;0.30;;;8.00;99.90;;;;;;5117893;27;20430;-81
2024/03/16 03:07:49;;;;;;;0.30;0.20;;;7.90;99.90;;;;;;5118145;27;20490;-82
2024/03/16 03:10:16;;;;;;;0.80;0.30;;;7.90;99.90;;;;;;5118016;27;20951;-81
2024/03/16 03:12:44;;;;;;;0.37;0.30;;;7.90;99.90;;;;;;5118887;27;20939;-81
2024/03/16 03:15:12;;;;;;;1.80;0.40;;;7.80;99.90;;;;;;5119258;27;20434;-81
2024/03/16 03:17:39;;;;;;;0.40;0.30;;;7.90;99.90;;;;;;5119214;27;20454;-81
2024/03/16 03:20:08;;;;;;;0.30;0.30;;;7.90;99.90;;;;;;5118286;27;20860;-81
2024/03/16 03:22:36;;;;;;;2.30;0.40;;;8.00;99.90;;;;;;5119382;27;20441;-81
2024/03/16 03:25:03;;;;;;;0.30;0.30;;;8.00;99.90;;;;;;5119031;27;21003;-81
2024/03/16 03:27:30;;;;;;;0.30;0.30;;;8.00;99.90;;;;;;5118920;27;20982;-81
2024/03/16 03:29:57;;;;;;;0.30;0.30;;;8.00;99.90;;;;;;5118600;27;20443;-81
2024/03/16 03:32:24;;;;;;;0.30;0.30;;;8.00;99.90;;;;;;5118916;27;20478;-81
2024/03/16 03:34:51;;;;;;;0.30;0.30;;;8.10;99.90;;;;;;5119061;27;20438;-81
2024/03/16 03:37:18;;;;;;;0.30;0.30;;;8.10;99.90;;;;;;5118982;27;20466;-81
2024/03/16 03:39:46;;;;;;;3.33;0.43;;;8.10;99.90;;;;;;5119309;27;20429;-81
2024/03/16 03:42:14;;;;;;;0.40;0.30;;;8.10;99.90;;;;;;5119626;27;20478;-81
2024/03/16 03:44:50;;;;;;;0.30;0.20;;;8.30;99.90;;;;;;5119793;27;20434;-82
2024/03/16 03:47:17;;;;;;;0.40;0.40;;;8.30;99.90;;;;;;5125446;27;20517;-82
2024/03/16 03:49:50;;;;;;;0.37;0.30;;;8.30;99.90;;;;;;5124311;27;20961;-82
2024/03/16 03:52:17;;;;;;;0.40;0.30;;;8.30;99.90;;;;;;5123744;27;20473;-81
2024/03/16 03:54:44;;;;;;;0.40;0.30;;;8.40;99.90;;;;;;5134563;27;20422;-82
2024/03/16 03:57:11;;;;;;;0.60;0.30;;;8.40;99.90;;;;;;5141763;27;20434;-83
2024/03/16 03:59:38;;;;;;;2.10;0.67;;;8.40;99.90;;;;;;5142039;27;20452;-82
2024/03/16 04:02:05;;;;;;;1.73;0.37;;;8.40;99.90;;;;;;5139972;27;20494;-82
2024/03/16 04:04:32;;;;;;;1.47;0.50;;;8.50;99.90;;;;;;5124948;27;20435;-82
2024/03/16 04:06:59;;;;;;;0.40;0.40;;;8.40;99.90;;;;;;5127186;27;20427;-81
2024/03/16 04:09:25;;;;;;;0.50;0.33;;;8.50;99.90;;;;;;5123182;27;20789;-82
2024/03/16 04:11:52;;;;;;;0.30;0.30;;;8.50;99.90;;;;;;5121661;28;20462;-81
2024/03/16 04:14:20;;;;;;;0.40;0.40;;;8.50;99.90;;;;;;5122127;28;20467;-81
2024/03/16 04:16:47;;;;;;;0.87;0.40;;;8.60;99.90;;;;;;5121080;28;20435;-81
2024/03/16 04:19:15;;;;;;;0.40;0.40;;;8.70;99.90;;;;;;5121447;28;20997;-82
2024/03/16 04:21:43;;;;;;;1.07;0.93;;;8.70;99.90;;;;;;5122042;28;20491;-82
2024/03/16 04:24:10;;;;;;;0.37;0.37;;;8.70;99.90;;;;;;5121261;28;20435;-81
2024/03/16 04:26:37;;;;;;;0.30;0.30;;;8.70;99.90;;;;;;5121545;28;20442;-81
2024/03/16 04:29:05;;;;;;;0.47;0.47;;;8.70;99.90;;;;;;5121296;28;20458;-81
2024/03/16 04:31:32;;;;;;;0.57;0.33;;;8.70;99.90;;;;;;5122200;27;20557;-81
2024/03/16 04:33:59;;;;;;;0.30;0.30;;;8.80;99.90;;;;;;5125707;27;20493;-81
2024/03/16 04:36:26;;;;;;;0.40;0.30;;;8.80;99.90;;;;;;5125804;27;20438;-81
2024/03/16 04:38:53;;;;;;;0.73;0.73;;;8.80;99.90;;;;;;5125199;27;20460;-81
2024/03/16 04:41:20;;;;;;;0.73;0.33;;;8.80;99.90;;;;;;5124105;27;20434;-81
2024/03/16 04:43:48;;;;;;;1.77;0.70;;;8.80;99.90;;;;;;5124642;27;20495;-81
2024/03/16 04:46:15;;;;;;;0.30;0.30;;;8.80;99.90;;;;;;5123522;27;20954;-81
2024/03/16 04:48:42;;;;;;;0.40;0.40;;;8.60;99.90;;;;;;5124033;27;20454;-81
2024/03/16 04:51:09;;;;;;;2.43;0.40;;;8.50;99.90;;;;;;5123282;27;20472;-81
2024/03/16 04:53:36;;;;;;;0.30;0.30;;;8.40;99.90;;;;;;5124142;27;20426;-81
2024/03/16 04:56:03;;;;;;;0.40;0.30;;;8.50;99.90;;;;;;5123633;27;20919;-81
2024/03/16 04:58:30;;;;;;;0.30;0.30;;;8.50;99.90;;;;;;5123269;27;20476;-81
2024/03/16 05:00:57;;;;;;;5.37;0.40;;;8.40;99.90;;;;;;5123497;27;20446;-81
2024/03/16 05:03:23;;;;;;;0.67;0.50;;;8.50;99.90;;;;;;5123471;27;20436;-81
2024/03/16 05:05:51;;;;;;;0.53;0.40;;;8.40;99.90;;;;;;5123284;27;20946;-82
2024/03/16 05:08:18;;;;;;;0.97;0.37;;;8.40;99.90;;;;;;5123115;27;20822;-81
2024/03/16 05:10:50;;;;;;;2.30;0.67;;;8.40;99.90;;;;;;5123044;27;20449;-81
2024/03/16 05:13:17;;;;;;;0.40;0.33;;;8.40;99.90;;;;;;5122905;27;20410;-82
2024/03/16 05:15:44;;;;;;;0.40;0.37;;;8.40;99.90;;;;;;5123960;27;20774;-82
2024/03/16 05:18:14;;;;;;;0.90;0.30;;;8.30;99.90;;;;;;5122358;27;20473;-83
2024/03/16 05:20:40;;;;;;;0.40;0.30;;;8.30;99.90;;;;;;5122876;27;20910;-82
2024/03/16 05:23:07;;;;;;;0.40;0.30;;;8.40;99.90;;;;;;5122486;27;20426;-82
2024/03/16 05:25:34;;;;;;;0.40;0.30;;;8.40;99.90;;;;;;5122306;27;20442;-82
2024/03/16 05:28:01;;;;;;;0.60;0.30;;;8.40;99.90;;;;;;5121715;27;20455;-82
2024/03/16 05:30:28;;;;;;;0.40;0.40;;;8.40;99.90;;;;;;5122085;27;20545;-82
2024/03/16 05:32:55;;;;;;;0.57;0.40;;;8.50;99.90;;;;;;5121991;27;20486;-82
2024/03/16 05:35:26;;;;;;;0.40;0.37;;;8.50;99.90;;;;;;5121604;27;20426;-82
2024/03/16 05:37:53;;;;;;;0.50;0.40;;;8.50;99.90;;;;;;5122313;27;20493;-82
2024/03/16 05:40:20;;;;;;;0.40;0.30;;;8.40;99.90;;;;;;5121077;27;20442;-82
2024/03/16 05:42:46;;;;;;;0.30;0.20;;;8.50;99.90;;;;;;5120756;27;20434;-82
2024/03/16 05:45:13;;;;;;;1.57;0.73;;;8.50;99.90;;;;;;5120685;27;20442;-82
2024/03/16 05:47:41;;;;;;;0.30;0.30;;;8.50;99.90;;;;;;5120766;27;20454;-82
2024/03/16 05:50:08;;;;;;;0.40;0.40;;;8.50;99.90;;;;;;5120621;27;20922;-82
2024/03/16 05:52:35;;;;;;;0.30;0.30;;;8.50;99.90;;;;;;5121196;27;20490;-82
2024/03/16 05:55:02;;;;;;;0.40;0.37;;;8.60;99.90;;;;;;5120741;27;20430;-82
2024/03/16 05:57:29;;;;;;;0.30;0.30;;;8.60;99.90;;;;;;5121591;27;20980;-82
2024/03/16 05:59:56;;;;;;;1.67;0.43;;;8.60;99.90;;;;;;5120847;27;20422;-82
2024/03/16 06:02:23;;;;;;;1.90;0.30;;;8.60;99.90;;;;;;5122242;27;20461;-82
2024/03/16 06:04:50;;;;;;;0.30;0.30;;;8.50;99.90;;;;;;5120842;27;20807;-82
2024/03/16 06:07:19;;;;;;;0.30;0.30;;;8.50;99.90;;;;;;5128568;27;20461;-83
2024/03/16 06:09:46;;;;;;;0.30;0.30;;;8.50;99.90;;;;;;5125498;27;20435;-82
2024/03/16 06:12:13;;;;;;;0.30;0.30;;;8.50;99.90;;;;;;5124934;27;20527;-83
2024/03/16 06:14:40;;;;;;;0.30;0.30;;;8.50;99.90;;;;;;5126141;27;20430;-82
2024/03/16 06:17:07;;;;;;;0.40;0.30;;;8.50;99.90;;;;;;5125215;27;20430;-82
2024/03/16 06:19:33;;;;;;;0.30;0.30;;;8.60;99.90;;;;;;5124566;27;20438;-82
2024/03/16 06:22:02;;;;;;;0.30;0.30;;;8.60;99.90;;;;;;5124050;27;20802;-82
2024/03/16 06:24:29;;;;;;;0.30;0.20;;;8.60;99.90;;;;;;5122867;27;20483;-82
2024/03/16 06:27:02;;;;;;;0.30;0.30;;;8.50;99.90;;;;;;5123533;27;20506;-82
2024/03/16 06:29:30;;;;;;;0.30;0.30;;;8.50;99.90;;;;;;5124492;27;20431;-81
2024/03/16 06:32:05;;;;;;;0.30;0.30;;;8.50;99.90;;;;;;5123023;27;20623;-82
2024/03/16 06:34:32;;;;;;;0.40;0.30;;;8.60;99.90;;;;;;5123815;27;20930;-81
2024/03/16 06:36:58;;;;;;;1.47;0.30;;;8.60;99.90;;;;;;5123064;27;20438;-81
2024/03/16 06:39:26;;;;;;;0.30;0.30;;;8.60;99.90;;;;;;5123162;27;20441;-81
2024/03/16 06:41:52;;;;;;;0.30;0.20;;;8.70;99.90;;;;;;5122873;27;20438;-81
2024/03/16 06:44:19;;;;;;;0.30;0.30;;;8.90;99.90;;;;;;5128232;27;20430;-82
2024/03/16 06:46:46;;;;;;;0.30;0.30;;;9.30;99.90;;;;;;5141760;27;20442;-82
2024/03/16 06:49:16;;;;;;;0.40;0.30;;;9.50;99.90;;;;;;5141580;27;20465;-82
2024/03/16 06:51:43;;;;;;;0.63;0.50;;;9.60;99.90;;;;;;5142032;27;20470;-82
2024/03/16 06:54:09;;;;;;;0.40;0.30;;;9.50;99.90;;;;;;5128745;27;20438;-82
2024/03/16 06:56:36;;;;;;;0.30;0.30;;;9.50;99.90;;;;;;5124345;27;20440;-81
2024/03/16 06:59:03;;;;;;;0.50;0.50;;;9.40;99.90;;;;;;5123160;27;20481;-81
2024/03/16 07:01:30;;;;;;;0.50;0.30;;;9.40;99.90;;;;;;5124040;27;20446;-82
2024/03/16 07:03:57;;;;;;;1.00;0.50;;;9.30;99.90;;;;;;5123405;27;20449;-81
2024/03/16 07:06:24;;;;;;;0.33;0.33;;;9.30;99.90;;;;;;5122259;27;20453;-82
2024/03/16 07:08:51;;;;;;;1.10;0.37;;;9.20;99.90;;;;;;5122734;27;20488;-81
2024/03/16 07:11:19;;;;;;;1.17;0.47;;;9.30;99.90;;;;;;5122840;27;20431;-81
2024/03/16 07:13:46;;;;;;;1.60;0.50;;;9.40;99.90;;;;;;5122157;27;20848;-81
2024/03/16 07:16:14;;;;;;;0.50;0.37;;;9.50;99.90;;;;;;5122510;27;20477;-82
2024/03/16 07:18:43;;;;;;;0.40;0.40;;;9.60;99.90;;;;;;5122161;27;20495;-81
2024/03/16 07:21:10;;;;;;;0.40;0.30;;;9.70;99.90;;;;;;5122352;27;20849;-81
2024/03/16 07:23:37;;;;;;;7.77;0.67;;;9.80;99.90;;;;;;5123244;27;20806;-81
2024/03/16 07:26:04;;;;;;;0.50;0.40;;;9.70;99.90;;;;;;5123433;27;20423;-81
2024/03/16 07:28:30;;;;;;;0.60;0.60;;;9.70;99.90;;;;;;5122800;27;20484;-82
2024/03/16 07:30:57;;;;;;;0.50;0.50;;;9.70;99.90;;;;;;5123487;27;20442;-81
2024/03/16 07:33:24;;;;;;;0.40;0.40;;;9.80;99.90;;;;;;5124451;27;20482;-82
2024/03/16 07:35:51;;;;;;;0.50;0.50;;;9.80;99.90;;;;;;5123355;27;20463;-81
2024/03/16 07:38:18;;;;;;;0.63;0.63;;;9.80;99.90;;;;;;5122329;27;20461;-82
2024/03/16 07:40:45;;;;;;;2.00;0.40;;;9.90;99.90;;;;;;5121498;27;20428;-81
2024/03/16 07:43:12;;;;;;;0.40;0.40;;;9.80;99.90;;;;;;5122196;27;20442;-81
2024/03/16 07:45:42;;;;;;;4.93;0.50;;;9.90;99.90;;;;;;5122674;27;20430;-82
2024/03/16 07:48:09;;;;;;;0.57;0.50;;;10.00;99.90;;;;;;5123872;27;21001;-81
2024/03/16 07:50:36;;;;;;;1.50;0.60;;;10.10;99.90;;;;;;5122650;27;20923;-82
2024/03/16 07:53:03;;;;;;;1.60;0.40;;;10.20;99.90;;;;;;5121394;28;20485;-82
2024/03/16 07:55:30;;;;;;;2.20;0.70;;;10.30;99.90;;;;;;5121082;27;20845;-81
2024/03/16 07:57:57;;;;;;;0.40;0.30;;;10.40;99.90;;;;;;5120827;27;20473;-81
2024/03/16 08:00:24;;;;;;;0.37;0.30;;;10.50;99.90;;;;;;5120991;27;20429;-82
2024/03/16 08:02:50;;;;;;;0.70;0.70;;;10.60;99.90;;;;;;5120901;27;20445;-82
2024/03/16 08:05:17;;;;;;;0.40;0.40;;;10.70;99.90;;;;;;5120212;28;20808;-82
2024/03/16 08:07:44;;;;;;;0.43;0.40;;;10.70;99.90;;;;;;5119267;27;20462;-82
2024/03/16 08:10:11;;;;;;;3.33;0.47;;;10.70;99.90;;;;;;5120052;27;20465;-82
2024/03/16 08:12:38;;;;;;;0.80;0.40;;;10.60;99.90;;;;;;5119617;28;20481;-82
2024/03/16 08:15:05;;;;;;;0.40;0.40;;;10.50;99.90;;;;;;5127877;28;20438;-82
2024/03/16 08:17:32;;;;;;;0.97;0.40;;;10.50;99.90;;;;;;5122903;28;20519;-82
2024/03/16 08:19:59;;;;;;;0.40;0.40;;;10.60;99.90;;;;;;5122523;28;20430;-82
2024/03/16 08:22:26;;;;;;;0.50;0.50;;;10.70;99.90;;;;;;5122050;28;20469;-82
2024/03/16 08:24:53;;;;;;;0.50;0.50;;;10.70;99.90;;;;;;5121938;28;20962;-83
2024/03/16 08:27:19;;;;;;;0.50;0.50;;;10.70;99.90;;;;;;5123959;28;20460;-82
2024/03/16 08:29:46;;;;;;;0.70;0.40;;;10.70;99.90;;;;;;5124868;28;20964;-82
2024/03/16 08:32:14;;;;;;;0.50;0.50;;;10.50;99.90;;;;;;5124783;28;20470;-82
2024/03/16 08:34:41;;;;;;;1.13;0.40;;;10.40;99.90;;;;;;5121766;28;20942;-82
2024/03/16 08:37:08;;;;;;;0.57;0.57;;;10.40;99.90;;;;;;5121913;28;20438;-82
2024/03/16 08:39:35;;;;;;;0.63;0.60;;;10.60;99.90;;;;;;5121559;28;20407;-82
2024/03/16 08:42:02;;;;;;;2.20;0.50;;;10.60;99.90;;;;;;5121786;28;20914;-82
2024/03/16 08:44:29;;;;;;;0.40;0.30;;;10.70;99.90;;;;;;5120858;28;20442;-82
2024/03/16 08:46:56;;;;;;;0.60;0.50;;;10.80;99.90;;;;;;5121508;28;20434;-82
2024/03/16 08:49:23;;;;;;;2.23;0.70;;;11.20;99.90;;;;;;5120040;28;20450;-83
2024/03/16 08:51:50;;;;;;;0.50;0.40;;;11.60;99.90;;;;;;5120761;28;20797;-82
2024/03/16 08:54:17;;;;;;;1.63;0.50;;;12.10;99.90;;;;;;5119903;28;20470;-82
2024/03/16 08:56:44;;;;;;;0.40;0.30;;;12.20;99.90;;;;;;5120055;28;20811;-82
2024/03/16 08:59:12;;;;;;;0.90;0.30;;;12.10;99.90;;;;;;5119344;28;20493;-82
2024/03/16 09:01:39;;;;;;;0.40;0.30;;;11.90;99.90;;;;;;5119825;28;20445;-82
2024/03/16 09:04:07;;;;;;;0.40;0.30;;;11.70;99.90;;;;;;5119302;28;20939;-82
2024/03/16 09:06:35;;;;;;;0.50;0.30;;;11.50;99.90;;;;;;5119712;28;20438;-82
2024/03/16 09:09:03;;;;;;;0.40;0.30;;;11.40;99.90;;;;;;5120963;28;20450;-82
2024/03/16 09:11:29;;;;;;;0.33;0.30;;;11.20;99.90;;;;;;5120219;28;20844;-82
2024/03/16 09:13:56;;;;;;;1.17;0.40;;;11.20;99.90;;;;;;5119026;28;20477;-82
2024/03/16 09:16:23;;;;;;;0.40;0.30;;;11.30;99.90;;;;;;5117805;28;20438;-82
2024/03/16 09:18:50;;;;;;;0.37;0.30;;;11.20;99.90;;;;;;5118495;27;20466;-82
2024/03/16 09:21:17;;;;;;;0.30;0.30;;;11.20;99.90;;;;;;5121406;27;20513;-79
2024/03/16 09:23:44;;;;;;;0.30;0.30;;;11.30;99.90;;;;;;5121448;27;20438;-82
2024/03/16 09:26:12;;;;;;;0.30;0.30;;;11.70;99.90;;;;;;5121955;27;20939;-82
2024/03/16 09:28:38;;;;;;;0.40;0.30;;;12.20;99.90;;;;;;5122732;27;20484;-82
2024/03/16 09:31:10;;;;;;;0.30;0.27;;;12.40;99.90;;;;;;5123769;27;20437;-82
2024/03/16 09:33:36;;;;;;;0.40;0.30;;;12.30;99.90;;;;;;5123760;27;20466;-82
2024/03/16 09:36:06;;;;;;;0.60;0.40;;;12.30;99.90;;;;;;5123378;27;20445;-82
2024/03/16 09:38:34;;;;;;;0.40;0.30;;;12.30;99.90;;;;;;5142240;27;20474;-83
2024/03/16 09:41:01;;;;;;;0.30;0.30;;;12.40;99.90;;;;;;5140875;27;20426;-83
2024/03/16 09:43:28;;;;;;;0.73;0.40;;;12.50;99.90;;;;;;5141005;27;20434;-82
2024/03/16 09:45:55;;;;;;;0.30;0.30;;;12.50;99.90;;;;;;5138081;27;20444;-82
2024/03/16 09:48:22;;;;;;;0.37;0.30;;;12.80;99.90;;;;;;5125682;27;20830;-83
2024/03/16 09:50:49;;;;;;;0.40;0.30;;;12.90;99.90;;;;;;5125083;27;20426;-83
2024/03/16 09:53:17;;;;;;;0.83;0.30;;;13.00;99.90;;;;;;5124792;27;20570;-82
2024/03/16 09:55:44;;;;;;;0.30;0.30;;;13.00;99.90;;;;;;5124753;27;20445;-82
2024/03/16 09:58:11;;;;;;;0.30;0.30;;;13.30;99.90;;;;;;5124257;27;20481;-82
2024/03/16 10:00:38;;;;;;;0.30;0.30;;;13.90;99.90;;;;;;5124535;27;20434;-82
2024/03/16 10:03:05;;;;;;;0.30;0.30;;;15.00;99.90;;;;;;5124035;27;20534;-82
2024/03/16 10:05:32;;;;;;;0.40;0.40;;;16.20;99.90;;;;;;5123378;27;20927;-82
2024/03/16 10:07:59;;;;;;;0.30;0.30;;;17.00;99.90;;;;;;5123242;27;20470;-82
2024/03/16 10:10:29;;;;;;;0.30;0.30;;;17.30;99.90;;;;;;5123159;27;20426;-85
2024/03/16 10:13:17;;;;;;;0.40;0.40;;;17.10;99.90;;;;;;5122627;27;20984;-82
2024/03/16 10:15:44;;;;;;;0.40;0.30;;;16.10;99.90;;;;;;5139660;27;20418;-83
2024/03/16 10:18:11;;;;;;;0.30;0.20;;;15.50;99.90;;;;;;5122662;27;20470;-83
2024/03/16 10:20:39;;;;;;;0.30;0.30;;;15.00;99.90;;;;;;5122913;27;20430;-82
2024/03/16 10:23:06;;;;;;;0.70;0.40;;;14.50;99.90;;;;;;5123171;27;20442;-82
2024/03/16 10:25:33;;;;;;;0.30;0.30;;;14.30;99.90;;;;;;5123003;27;20437;-83
2024/03/16 10:28:00;;;;;;;0.30;0.30;;;13.90;99.90;;;;;;5122960;27;20473;-83
2024/03/16 10:30:28;;;;;;;0.30;0.30;;;13.70;99.90;;;;;;5124286;27;20431;-83
2024/03/16 10:32:56;;;;;;;0.60;0.40;;;13.40;99.90;;;;;;5123960;27;20482;-82
2024/03/16 10:35:26;;;;;;;0.53;0.30;;;13.10;99.90;;;;;;5123636;27;20443;-83
2024/03/16 10:37:53;;;;;;;0.40;0.30;;;12.80;99.90;;;;;;5124141;27;20458;-83
2024/03/16 10:40:21;;;;;;;0.40;0.30;;;12.70;99.90;;;;;;5123090;27;20453;-83
2024/03/16 10:42:48;;;;;;;0.30;0.30;;;12.60;99.90;;;;;;5126300;27;20447;-83
2024/03/16 10:45:16;;;;;;;0.50;0.37;;;12.60;99.90;;;;;;5123406;27;20452;-83
2024/03/16 10:47:44;;;;;;;0.60;0.43;;;12.50;99.90;;;;;;5123400;27;20818;-82
2024/03/16 10:50:11;;;;;;;0.40;0.30;;;12.50;99.90;;;;;;5122697;27;20453;-82
2024/03/16 10:52:43;;;;;;;0.40;0.30;;;12.50;99.90;;;;;;5122752;27;20438;-82
2024/03/16 10:55:11;;;;;;;0.30;0.20;;;12.50;99.90;;;;;;5122254;27;21004;-83
2024/03/16 10:57:38;;;;;;;0.50;0.37;;;12.60;99.90;;;;;;5121743;27;20477;-82
2024/03/16 11:00:15;;;;;;;2.00;0.33;;;12.60;99.90;;;;;;5121771;27;20427;-83
2024/03/16 11:02:49;;;;;;;1.57;0.40;;;12.80;99.90;;;;;;5123445;27;20768;-82
2024/03/16 11:05:37;;;;;;;0.30;0.30;;;13.10;99.90;;;;;;5127523;27;20441;-82
2024/03/16 11:08:23;;;;;;;0.40;0.30;;;13.70;99.90;;;;;;5121304;27;20974;-83
2024/03/16 11:10:49;;;;;;;0.33;0.30;;;14.20;99.90;;;;;;5123384;27;20851;-82
2024/03/16 11:13:16;;;;;;;0.40;0.40;;;14.90;99.90;;;;;;5140683;27;20542;-83
2024/03/16 11:15:44;;;;;;;0.37;0.30;;;15.30;99.90;;;;;;5140716;27;20427;-82
2024/03/16 11:18:41;;;;;;;2.53;0.40;;;15.70;99.90;;;;;;5140447;27;20457;-82
2024/03/16 11:21:16;;;;;;;0.30;0.20;;;16.10;99.90;;;;;;5155871;27;20429;-83
2024/03/16 11:23:44;;;;;;;0.30;0.27;;;16.20;99.90;;;;;;5123807;27;20423;-83
2024/03/16 11:26:38;;;;;;;0.30;0.30;;;16.10;99.90;;;;;;5122415;27;20445;-84
2024/03/16 11:29:18;;;;;;;0.40;0.30;;;16.00;99.90;;;;;;5122027;27;20470;-84
2024/03/16 11:31:46;;;;;;;1.33;0.30;;;15.70;99.90;;;;;;5124702;27;20410;-84
2024/03/16 11:34:14;;;;;;;0.30;0.30;;;15.60;99.90;;;;;;5122889;27;20493;-84
2024/03/16 11:36:43;;;;;;;0.63;0.30;;;15.60;99.90;;;;;;5123363;27;20926;-84
2024/03/16 11:39:12;;;;;;;0.40;0.30;;;15.70;99.90;;;;;;5121577;27;20543;-84
2024/03/16 11:41:45;;;;;;;0.40;0.30;;;15.70;99.90;;;;;;5120744;27;20783;-84
2024/03/16 11:44:15;;;;;;;0.40;0.30;;;16.00;99.90;;;;;;5122465;27;20772;-84
2024/03/16 11:46:45;;;;;;;0.40;0.40;;;16.10;99.90;;;;;;5121765;27;20442;-84
2024/03/16 11:49:11;;;;;;;0.40;0.30;;;16.20;99.90;;;;;;5121140;27;20450;-84
2024/03/16 11:51:39;;;;;;;0.50;0.50;;;15.90;99.90;;;;;;5121815;27;20478;-84
2024/03/16 11:54:07;;;;;;;0.40;0.33;;;15.90;99.90;;;;;;5120809;27;20466;-84
2024/03/16 11:56:34;;;;;;;0.40;0.40;;;16.00;99.90;;;;;;5121513;27;20438;-84
2024/03/16 11:59:03;;;;;;;0.40;0.33;;;15.90;99.90;;;;;;5120837;27;20473;-84
2024/03/16 12:01:32;;;;;;;0.57;0.40;;;15.90;99.90;;;;;;5105331;27;20446;-81
2024/03/16 12:03:58;;;;;;;0.40;0.30;;;15.80;99.90;;;;;;5121188;27;20415;-84
2024/03/16 12:06:25;;;;;;;0.30;0.30;;;15.80;99.90;;;;;;5121436;27;20993;-83
2024/03/16 12:08:51;;;;;;;0.60;0.40;;;15.80;99.90;;;;;;5119636;27;20987;-82
2024/03/16 12:11:18;;;;;;;0.70;0.30;;;15.90;99.90;;;;;;5119573;27;20449;-82
2024/03/16 12:13:45;;;;;;;0.30;0.30;;;16.10;99.90;;;;;;5119361;28;20627;-81
2024/03/16 12:16:11;;;;;;;0.40;0.40;;;16.30;99.90;;;;;;5119377;28;20558;-81
2024/03/16 12:18:38;;;;;;;0.40;0.30;;;16.10;99.90;;;;;;5119575;28;20458;-80
2024/03/16 12:21:05;;;;;;;0.80;0.40;;;15.80;99.90;;;;;;5119876;28;20924;-80
2024/03/16 12:23:32;;;;;;;0.37;0.30;;;15.60;99.90;;;;;;5120005;28;20466;-80
2024/03/16 12:25:59;;;;;;;0.53;0.33;;;15.60;99.90;;;;;;5119420;28;20851;-80
2024/03/16 12:28:25;;;;;;;0.60;0.50;;;15.70;99.90;;;;;;5122008;28;20454;-81
2024/03/16 12:30:52;;;;;;;0.40;0.37;;;15.70;99.90;;;;;;5124006;28;20772;-84
2024/03/16 12:33:19;;;;;;;0.40;0.30;;;15.80;99.90;;;;;;5121273;28;20213;-82
2024/03/16 12:35:45;;;;;;;0.40;0.40;;;15.70;99.90;;;;;;5123935;28;20511;-82
2024/03/16 12:38:11;;;;;;;0.40;0.30;;;15.70;99.90;;;;;;5122277;28;20488;-82
2024/03/16 12:40:38;;;;;;;0.40;0.30;;;15.60;99.90;;;;;;5122339;28;20946;-82
2024/03/16 12:43:04;;;;;;;0.40;0.30;;;15.60;99.90;;;;;;5120756;28;20236;-82
2024/03/16 12:45:32;;;;;;;0.80;0.30;;;15.60;99.90;;;;;;5120308;28;20530;-82
2024/03/16 12:47:58;;;;;;;0.37;0.30;;;15.70;99.90;;;;;;5120636;28;20469;-82
2024/03/16 12:50:25;;;;;;;0.40;0.40;;;15.70;99.90;;;;;;5120482;28;20450;-82
2024/03/16 12:52:51;;;;;;;0.40;0.30;;;15.70;99.90;;;;;;5122303;27;20181;-82
2024/03/16 12:55:18;;;;;;;0.40;0.40;;;15.70;99.90;;;;;;5126895;27;20485;-82